sensor_id;sensor_type;location;lat;lon;timestamp;P1;durP1;ratioP1;P2;durP2;ratioP2
60068;SDS011;45945;53.350;55.922;2022-08-19T00:00:19;6.75;;;2.40;;
60068;SDS011;45945;53.350;55.922;2022-08-19T00:01:20;4.75;;;2.10;;
60068;SDS011;45945;53.350;55.922;2022-08-19T00:02:22;3.95;;;2.08;;
60068;SDS011;45945;53.350;55.922;2022-08-19T00:03:23;5.28;;;2.50;;
60068;SDS011;45945;53.350;55.922;2022-08-19T00:04:26;5.75;;;2.25;;
60068;SDS011;45945;53.350;55.922;2022-08-19T00:05:29;5.28;;;2.53;;
60068;SDS011;45945;53.350;55.922;2022-08-19T00:06:30;5.65;;;2.40;;
60068;SDS011;45945;53.350;55.922;2022-08-19T00:07:31;6.15;;;2.33;;
60068;SDS011;45945;53.350;55.922;2022-08-19T00:08:32;6.57;;;2.55;;
60068;SDS011;45945;53.350;55.922;2022-08-19T00:09:33;6.82;;;2.45;;
60068;SDS011;45945;53.350;55.922;2022-08-19T00:10:34;4.93;;;2.20;;
60068;SDS011;45945;53.350;55.922;2022-08-19T00:11:36;4.80;;;2.20;;
60068;SDS011;45945;53.350;55.922;2022-08-19T00:12:38;5.32;;;2.42;;
60068;SDS011;45945;53.350;55.922;2022-08-19T00:13:39;6.00;;;2.40;;
60068;SDS011;45945;53.350;55.922;2022-08-19T00:14:40;4.80;;;2.22;;
60068;SDS011;45945;53.350;55.922;2022-08-19T00:15:41;5.55;;;2.35;;
60068;SDS011;45945;53.350;55.922;2022-08-19T00:16:45;6.00;;;2.45;;
60068;SDS011;45945;53.350;55.922;2022-08-19T00:17:48;4.85;;;2.00;;
60068;SDS011;45945;53.350;55.922;2022-08-19T00:18:49;4.40;;;2.17;;
60068;SDS011;45945;53.350;55.922;2022-08-19T00:19:50;4.53;;;2.03;;
60068;SDS011;45945;53.350;55.922;2022-08-19T00:20:51;4.82;;;1.85;;
60068;SDS011;45945;53.350;55.922;2022-08-19T00:21:53;6.30;;;2.30;;
60068;SDS011;45945;53.350;55.922;2022-08-19T00:22:56;6.57;;;2.50;;
60068;SDS011;45945;53.350;55.922;2022-08-19T00:23:58;6.50;;;2.17;;
60068;SDS011;45945;53.350;55.922;2022-08-19T00:24:59;4.70;;;2.20;;
60068;SDS011;45945;53.350;55.922;2022-08-19T00:26:00;6.32;;;2.35;;
60068;SDS011;45945;53.350;55.922;2022-08-19T00:27:01;7.78;;;3.75;;
60068;SDS011;45945;53.350;55.922;2022-08-19T00:28:02;6.72;;;4.30;;
60068;SDS011;45945;53.350;55.922;2022-08-19T00:29:05;5.43;;;2.53;;
60068;SDS011;45945;53.350;55.922;2022-08-19T00:30:07;6.57;;;2.80;;
60068;SDS011;45945;53.350;55.922;2022-08-19T00:31:10;6.30;;;2.85;;
60068;SDS011;45945;53.350;55.922;2022-08-19T00:32:11;4.63;;;2.40;;
60068;SDS011;45945;53.350;55.922;2022-08-19T00:33:12;7.32;;;2.60;;
60068;SDS011;45945;53.350;55.922;2022-08-19T00:34:14;5.03;;;2.47;;
60068;SDS011;45945;53.350;55.922;2022-08-19T00:35:15;6.80;;;2.85;;
60068;SDS011;45945;53.350;55.922;2022-08-19T00:36:18;5.72;;;2.28;;
60068;SDS011;45945;53.350;55.922;2022-08-19T00:37:20;4.93;;;2.42;;
60068;SDS011;45945;53.350;55.922;2022-08-19T00:38:27;6.85;;;2.60;;
60068;SDS011;45945;53.350;55.922;2022-08-19T00:39:28;8.52;;;2.88;;
60068;SDS011;45945;53.350;55.922;2022-08-19T00:40:30;5.93;;;2.60;;
60068;SDS011;45945;53.350;55.922;2022-08-19T00:41:31;5.57;;;2.83;;
60068;SDS011;45945;53.350;55.922;2022-08-19T00:42:32;6.43;;;3.03;;
60068;SDS011;45945;53.350;55.922;2022-08-19T00:43:33;6.78;;;2.83;;
60068;SDS011;45945;53.350;55.922;2022-08-19T00:44:35;5.85;;;2.83;;
60068;SDS011;45945;53.350;55.922;2022-08-19T00:45:36;5.95;;;2.47;;
60068;SDS011;45945;53.350;55.922;2022-08-19T00:46:38;7.57;;;3.08;;
60068;SDS011;45945;53.350;55.922;2022-08-19T00:47:41;6.28;;;2.95;;
60068;SDS011;45945;53.350;55.922;2022-08-19T00:48:42;6.72;;;2.75;;
60068;SDS011;45945;53.350;55.922;2022-08-19T00:49:45;6.95;;;2.92;;
60068;SDS011;45945;53.350;55.922;2022-08-19T00:50:57;5.50;;;2.92;;
60068;SDS011;45945;53.350;55.922;2022-08-19T00:52:08;6.72;;;3.13;;
60068;SDS011;45945;53.350;55.922;2022-08-19T00:53:16;6.28;;;3.03;;
60068;SDS011;45945;53.350;55.922;2022-08-19T00:54:22;6.25;;;3.40;;
60068;SDS011;45945;53.350;55.922;2022-08-19T00:55:24;8.77;;;3.50;;
60068;SDS011;45945;53.350;55.922;2022-08-19T00:56:28;5.90;;;3.15;;
60068;SDS011;45945;53.350;55.922;2022-08-19T00:57:35;6.35;;;3.35;;
60068;SDS011;45945;53.350;55.922;2022-08-19T00:58:38;10.30;;;3.42;;
60068;SDS011;45945;53.350;55.922;2022-08-19T00:59:41;7.78;;;3.50;;
60068;SDS011;45945;53.350;55.922;2022-08-19T01:00:45;7.70;;;3.30;;
60068;SDS011;45945;53.350;55.922;2022-08-19T01:01:46;6.03;;;2.90;;
60068;SDS011;45945;53.350;55.922;2022-08-19T01:02:48;8.38;;;3.33;;
60068;SDS011;45945;53.350;55.922;2022-08-19T01:03:49;9.15;;;4.00;;
60068;SDS011;45945;53.350;55.922;2022-08-19T01:04:50;6.72;;;3.33;;
60068;SDS011;45945;53.350;55.922;2022-08-19T01:05:51;9.48;;;3.80;;
60068;SDS011;45945;53.350;55.922;2022-08-19T01:06:55;7.53;;;3.70;;
60068;SDS011;45945;53.350;55.922;2022-08-19T01:07:59;7.38;;;3.60;;
60068;SDS011;45945;53.350;55.922;2022-08-19T01:09:01;8.20;;;3.53;;
60068;SDS011;45945;53.350;55.922;2022-08-19T01:10:03;9.68;;;3.60;;
60068;SDS011;45945;53.350;55.922;2022-08-19T01:11:07;6.95;;;3.63;;
60068;SDS011;45945;53.350;55.922;2022-08-19T01:12:11;8.52;;;4.05;;
60068;SDS011;45945;53.350;55.922;2022-08-19T01:13:13;9.02;;;4.38;;
60068;SDS011;45945;53.350;55.922;2022-08-19T01:14:15;9.13;;;4.10;;
60068;SDS011;45945;53.350;55.922;2022-08-19T01:15:19;7.43;;;3.85;;
60068;SDS011;45945;53.350;55.922;2022-08-19T01:16:25;14.85;;;9.38;;
60068;SDS011;45945;53.350;55.922;2022-08-19T01:17:28;15.63;;;9.40;;
60068;SDS011;45945;53.350;55.922;2022-08-19T01:18:30;9.93;;;3.92;;
60068;SDS011;45945;53.350;55.922;2022-08-19T01:19:33;13.23;;;7.88;;
60068;SDS011;45945;53.350;55.922;2022-08-19T01:20:37;11.68;;;6.47;;
60068;SDS011;45945;53.350;55.922;2022-08-19T01:21:41;10.73;;;4.93;;
60068;SDS011;45945;53.350;55.922;2022-08-19T01:22:54;11.10;;;4.70;;
60068;SDS011;45945;53.350;55.922;2022-08-19T01:23:57;9.50;;;5.13;;
60068;SDS011;45945;53.350;55.922;2022-08-19T01:24:59;7.97;;;4.13;;
60068;SDS011;45945;53.350;55.922;2022-08-19T01:26:01;6.45;;;3.75;;
60068;SDS011;45945;53.350;55.922;2022-08-19T01:27:05;8.02;;;4.28;;
60068;SDS011;45945;53.350;55.922;2022-08-19T01:28:07;9.23;;;4.60;;
60068;SDS011;45945;53.350;55.922;2022-08-19T01:29:08;7.93;;;4.00;;
60068;SDS011;45945;53.350;55.922;2022-08-19T01:30:15;9.60;;;4.05;;
60068;SDS011;45945;53.350;55.922;2022-08-19T01:31:23;10.40;;;4.50;;
60068;SDS011;45945;53.350;55.922;2022-08-19T01:32:27;11.98;;;5.78;;
60068;SDS011;45945;53.350;55.922;2022-08-19T01:33:28;9.82;;;5.90;;
60068;SDS011;45945;53.350;55.922;2022-08-19T01:34:31;11.77;;;5.00;;
60068;SDS011;45945;53.350;55.922;2022-08-19T01:35:34;8.95;;;4.95;;
60068;SDS011;45945;53.350;55.922;2022-08-19T01:36:38;10.68;;;4.95;;
60068;SDS011;45945;53.350;55.922;2022-08-19T01:37:43;11.50;;;5.47;;
60068;SDS011;45945;53.350;55.922;2022-08-19T01:38:45;11.02;;;5.15;;
60068;SDS011;45945;53.350;55.922;2022-08-19T01:39:46;10.45;;;5.15;;
60068;SDS011;45945;53.350;55.922;2022-08-19T01:40:47;10.80;;;5.90;;
60068;SDS011;45945;53.350;55.922;2022-08-19T01:41:49;12.95;;;5.65;;
60068;SDS011;45945;53.350;55.922;2022-08-19T01:42:51;9.55;;;5.15;;
60068;SDS011;45945;53.350;55.922;2022-08-19T01:43:53;12.95;;;6.10;;
60068;SDS011;45945;53.350;55.922;2022-08-19T01:44:54;11.68;;;5.63;;
60068;SDS011;45945;53.350;55.922;2022-08-19T01:45:55;12.63;;;5.63;;
60068;SDS011;45945;53.350;55.922;2022-08-19T01:46:56;12.70;;;5.32;;
60068;SDS011;45945;53.350;55.922;2022-08-19T01:47:57;12.30;;;5.53;;
60068;SDS011;45945;53.350;55.922;2022-08-19T01:48:58;11.95;;;5.32;;
60068;SDS011;45945;53.350;55.922;2022-08-19T01:49:59;9.57;;;5.38;;
60068;SDS011;45945;53.350;55.922;2022-08-19T01:51:00;10.30;;;5.80;;
60068;SDS011;45945;53.350;55.922;2022-08-19T01:52:02;12.30;;;5.97;;
60068;SDS011;45945;53.350;55.922;2022-08-19T01:53:05;13.68;;;6.55;;
60068;SDS011;45945;53.350;55.922;2022-08-19T01:54:10;17.27;;;8.63;;
60068;SDS011;45945;53.350;55.922;2022-08-19T01:55:15;15.40;;;8.82;;
60068;SDS011;45945;53.350;55.922;2022-08-19T01:56:18;14.43;;;7.43;;
60068;SDS011;45945;53.350;55.922;2022-08-19T01:57:19;10.93;;;6.55;;
60068;SDS011;45945;53.350;55.922;2022-08-19T01:58:21;11.02;;;6.25;;
60068;SDS011;45945;53.350;55.922;2022-08-19T01:59:31;14.10;;;6.63;;
60068;SDS011;45945;53.350;55.922;2022-08-19T02:00:33;12.98;;;6.82;;
60068;SDS011;45945;53.350;55.922;2022-08-19T02:01:34;14.48;;;7.22;;
60068;SDS011;45945;53.350;55.922;2022-08-19T02:02:36;14.43;;;7.18;;
60068;SDS011;45945;53.350;55.922;2022-08-19T02:03:37;12.63;;;6.53;;
60068;SDS011;45945;53.350;55.922;2022-08-19T02:04:38;13.10;;;6.60;;
60068;SDS011;45945;53.350;55.922;2022-08-19T02:05:39;13.98;;;7.72;;
60068;SDS011;45945;53.350;55.922;2022-08-19T02:06:40;13.63;;;7.70;;
60068;SDS011;45945;53.350;55.922;2022-08-19T02:07:41;13.05;;;6.80;;
60068;SDS011;45945;53.350;55.922;2022-08-19T02:08:43;17.13;;;7.28;;
60068;SDS011;45945;53.350;55.922;2022-08-19T02:09:46;13.35;;;7.00;;
60068;SDS011;45945;53.350;55.922;2022-08-19T02:10:48;22.23;;;10.10;;
60068;SDS011;45945;53.350;55.922;2022-08-19T02:11:50;13.38;;;7.00;;
60068;SDS011;45945;53.350;55.922;2022-08-19T02:12:51;13.73;;;6.65;;
60068;SDS011;45945;53.350;55.922;2022-08-19T02:13:55;17.90;;;7.03;;
60068;SDS011;45945;53.350;55.922;2022-08-19T02:14:56;14.48;;;7.03;;
60068;SDS011;45945;53.350;55.922;2022-08-19T02:15:57;15.43;;;7.30;;
60068;SDS011;45945;53.350;55.922;2022-08-19T02:16:58;17.60;;;7.88;;
60068;SDS011;45945;53.350;55.922;2022-08-19T02:17:59;13.63;;;7.45;;
60068;SDS011;45945;53.350;55.922;2022-08-19T02:19:00;20.60;;;8.68;;
60068;SDS011;45945;53.350;55.922;2022-08-19T02:20:01;18.40;;;7.30;;
60068;SDS011;45945;53.350;55.922;2022-08-19T02:21:03;17.08;;;7.93;;
60068;SDS011;45945;53.350;55.922;2022-08-19T02:22:04;14.00;;;7.97;;
60068;SDS011;45945;53.350;55.922;2022-08-19T02:23:06;12.93;;;8.07;;
60068;SDS011;45945;53.350;55.922;2022-08-19T02:24:07;17.65;;;9.38;;
60068;SDS011;45945;53.350;55.922;2022-08-19T02:25:12;17.40;;;9.77;;
60068;SDS011;45945;53.350;55.922;2022-08-19T02:26:14;16.65;;;9.43;;
60068;SDS011;45945;53.350;55.922;2022-08-19T02:27:15;16.45;;;11.63;;
60068;SDS011;45945;53.350;55.922;2022-08-19T02:28:17;17.70;;;11.23;;
60068;SDS011;45945;53.350;55.922;2022-08-19T02:29:17;16.00;;;9.63;;
60068;SDS011;45945;53.350;55.922;2022-08-19T02:30:19;13.30;;;7.70;;
60068;SDS011;45945;53.350;55.922;2022-08-19T02:31:20;12.40;;;7.50;;
60068;SDS011;45945;53.350;55.922;2022-08-19T02:32:23;10.93;;;6.80;;
60068;SDS011;45945;53.350;55.922;2022-08-19T02:33:24;10.60;;;5.45;;
60068;SDS011;45945;53.350;55.922;2022-08-19T02:34:25;11.65;;;5.38;;
60068;SDS011;45945;53.350;55.922;2022-08-19T02:35:26;9.18;;;4.13;;
60068;SDS011;45945;53.350;55.922;2022-08-19T02:36:27;8.52;;;3.30;;
60068;SDS011;45945;53.350;55.922;2022-08-19T02:37:28;8.73;;;3.38;;
60068;SDS011;45945;53.350;55.922;2022-08-19T02:38:47;5.57;;;3.20;;
60068;SDS011;45945;53.350;55.922;2022-08-19T02:39:49;9.52;;;3.58;;
60068;SDS011;45945;53.350;55.922;2022-08-19T02:40:51;6.75;;;3.25;;
60068;SDS011;45945;53.350;55.922;2022-08-19T02:41:59;9.07;;;3.28;;
60068;SDS011;45945;53.350;55.922;2022-08-19T02:43:03;7.18;;;3.42;;
60068;SDS011;45945;53.350;55.922;2022-08-19T02:44:07;7.78;;;3.20;;
60068;SDS011;45945;53.350;55.922;2022-08-19T02:45:09;8.93;;;3.55;;
60068;SDS011;45945;53.350;55.922;2022-08-19T02:46:11;8.07;;;3.22;;
60068;SDS011;45945;53.350;55.922;2022-08-19T02:47:16;7.47;;;3.22;;
60068;SDS011;45945;53.350;55.922;2022-08-19T02:48:18;8.07;;;3.53;;
60068;SDS011;45945;53.350;55.922;2022-08-19T02:49:20;8.52;;;3.83;;
60068;SDS011;45945;53.350;55.922;2022-08-19T02:50:21;7.95;;;3.75;;
60068;SDS011;45945;53.350;55.922;2022-08-19T02:51:23;6.93;;;3.20;;
60068;SDS011;45945;53.350;55.922;2022-08-19T02:52:26;8.45;;;3.50;;
60068;SDS011;45945;53.350;55.922;2022-08-19T02:53:28;9.95;;;3.92;;
60068;SDS011;45945;53.350;55.922;2022-08-19T02:54:29;7.43;;;3.58;;
60068;SDS011;45945;53.350;55.922;2022-08-19T02:55:30;8.68;;;3.40;;
60068;SDS011;45945;53.350;55.922;2022-08-19T02:56:33;9.02;;;3.72;;
60068;SDS011;45945;53.350;55.922;2022-08-19T02:57:36;8.43;;;3.58;;
60068;SDS011;45945;53.350;55.922;2022-08-19T02:58:37;11.00;;;3.72;;
60068;SDS011;45945;53.350;55.922;2022-08-19T02:59:38;8.18;;;3.63;;
60068;SDS011;45945;53.350;55.922;2022-08-19T03:00:47;12.57;;;4.35;;
60068;SDS011;45945;53.350;55.922;2022-08-19T03:01:50;8.40;;;4.10;;
60068;SDS011;45945;53.350;55.922;2022-08-19T03:02:51;7.50;;;3.55;;
60068;SDS011;45945;53.350;55.922;2022-08-19T03:03:52;8.27;;;4.10;;
60068;SDS011;45945;53.350;55.922;2022-08-19T03:04:54;8.93;;;3.55;;
60068;SDS011;45945;53.350;55.922;2022-08-19T03:06:11;8.40;;;4.25;;
60068;SDS011;45945;53.350;55.922;2022-08-19T03:07:15;8.20;;;4.05;;
60068;SDS011;45945;53.350;55.922;2022-08-19T03:08:16;8.73;;;3.60;;
60068;SDS011;45945;53.350;55.922;2022-08-19T03:09:17;10.13;;;3.60;;
60068;SDS011;45945;53.350;55.922;2022-08-19T03:10:20;8.85;;;3.47;;
60068;SDS011;45945;53.350;55.922;2022-08-19T03:11:22;8.02;;;3.50;;
60068;SDS011;45945;53.350;55.922;2022-08-19T03:12:24;10.52;;;3.75;;
60068;SDS011;45945;53.350;55.922;2022-08-19T03:13:25;9.68;;;3.70;;
60068;SDS011;45945;53.350;55.922;2022-08-19T03:14:26;8.55;;;3.05;;
60068;SDS011;45945;53.350;55.922;2022-08-19T03:15:30;7.50;;;3.10;;
60068;SDS011;45945;53.350;55.922;2022-08-19T03:16:32;8.88;;;3.10;;
60068;SDS011;45945;53.350;55.922;2022-08-19T03:17:34;8.52;;;3.38;;
60068;SDS011;45945;53.350;55.922;2022-08-19T03:18:36;8.13;;;2.75;;
60068;SDS011;45945;53.350;55.922;2022-08-19T03:19:37;6.68;;;2.88;;
60068;SDS011;45945;53.350;55.922;2022-08-19T03:20:45;5.75;;;2.10;;
60068;SDS011;45945;53.350;55.922;2022-08-19T03:21:48;5.97;;;2.25;;
60068;SDS011;45945;53.350;55.922;2022-08-19T03:22:49;8.20;;;2.60;;
60068;SDS011;45945;53.350;55.922;2022-08-19T03:23:53;8.02;;;2.50;;
60068;SDS011;45945;53.350;55.922;2022-08-19T03:24:55;7.68;;;2.97;;
60068;SDS011;45945;53.350;55.922;2022-08-19T03:25:57;7.32;;;2.15;;
60068;SDS011;45945;53.350;55.922;2022-08-19T03:26:58;6.93;;;2.40;;
60068;SDS011;45945;53.350;55.922;2022-08-19T03:27:59;8.07;;;2.40;;
60068;SDS011;45945;53.350;55.922;2022-08-19T03:29:03;8.82;;;2.53;;
60068;SDS011;45945;53.350;55.922;2022-08-19T03:30:05;8.40;;;2.30;;
60068;SDS011;45945;53.350;55.922;2022-08-19T03:31:08;5.30;;;2.03;;
60068;SDS011;45945;53.350;55.922;2022-08-19T03:32:12;6.57;;;2.42;;
60068;SDS011;45945;53.350;55.922;2022-08-19T03:33:13;7.05;;;2.65;;
60068;SDS011;45945;53.350;55.922;2022-08-19T03:34:15;7.00;;;2.70;;
60068;SDS011;45945;53.350;55.922;2022-08-19T03:35:19;9.25;;;2.63;;
60068;SDS011;45945;53.350;55.922;2022-08-19T03:36:24;6.78;;;2.50;;
60068;SDS011;45945;53.350;55.922;2022-08-19T03:37:27;5.43;;;2.28;;
60068;SDS011;45945;53.350;55.922;2022-08-19T03:38:29;6.60;;;2.08;;
60068;SDS011;45945;53.350;55.922;2022-08-19T03:39:30;6.85;;;2.05;;
60068;SDS011;45945;53.350;55.922;2022-08-19T03:40:31;10.10;;;2.05;;
60068;SDS011;45945;53.350;55.922;2022-08-19T03:41:35;6.22;;;1.95;;
60068;SDS011;45945;53.350;55.922;2022-08-19T03:42:37;7.47;;;2.22;;
60068;SDS011;45945;53.350;55.922;2022-08-19T03:43:39;5.25;;;1.70;;
60068;SDS011;45945;53.350;55.922;2022-08-19T03:44:41;4.70;;;1.75;;
60068;SDS011;45945;53.350;55.922;2022-08-19T03:45:44;5.60;;;1.50;;
60068;SDS011;45945;53.350;55.922;2022-08-19T03:46:50;5.20;;;1.60;;
60068;SDS011;45945;53.350;55.922;2022-08-19T03:47:53;4.65;;;1.67;;
60068;SDS011;45945;53.350;55.922;2022-08-19T03:48:54;4.00;;;1.50;;
60068;SDS011;45945;53.350;55.922;2022-08-19T03:49:56;5.80;;;2.03;;
60068;SDS011;45945;53.350;55.922;2022-08-19T03:50:58;6.00;;;1.60;;
60068;SDS011;45945;53.350;55.922;2022-08-19T03:51:59;4.53;;;1.60;;
60068;SDS011;45945;53.350;55.922;2022-08-19T03:53:01;5.18;;;1.90;;
60068;SDS011;45945;53.350;55.922;2022-08-19T03:54:03;6.72;;;2.05;;
60068;SDS011;45945;53.350;55.922;2022-08-19T03:55:05;5.43;;;1.90;;
60068;SDS011;45945;53.350;55.922;2022-08-19T03:56:08;6.35;;;1.70;;
60068;SDS011;45945;53.350;55.922;2022-08-19T03:57:09;5.05;;;1.50;;
60068;SDS011;45945;53.350;55.922;2022-08-19T03:58:10;6.90;;;1.83;;
60068;SDS011;45945;53.350;55.922;2022-08-19T03:59:13;6.32;;;2.05;;
60068;SDS011;45945;53.350;55.922;2022-08-19T04:00:16;5.97;;;1.80;;
60068;SDS011;45945;53.350;55.922;2022-08-19T04:01:21;5.93;;;1.75;;
60068;SDS011;45945;53.350;55.922;2022-08-19T04:02:24;6.72;;;2.10;;
60068;SDS011;45945;53.350;55.922;2022-08-19T04:03:25;5.65;;;1.98;;
60068;SDS011;45945;53.350;55.922;2022-08-19T04:04:27;3.83;;;1.50;;
60068;SDS011;45945;53.350;55.922;2022-08-19T04:05:29;6.82;;;1.80;;
60068;SDS011;45945;53.350;55.922;2022-08-19T04:06:32;6.97;;;3.85;;
60068;SDS011;45945;53.350;55.922;2022-08-19T04:07:34;41.88;;;27.45;;
60068;SDS011;45945;53.350;55.922;2022-08-19T04:08:36;6.75;;;1.75;;
60068;SDS011;45945;53.350;55.922;2022-08-19T04:09:37;6.72;;;2.08;;
60068;SDS011;45945;53.350;55.922;2022-08-19T05:45:37;5.38;;;1.80;;
60068;SDS011;45945;53.350;55.922;2022-08-19T05:46:41;4.60;;;1.80;;
60068;SDS011;45945;53.350;55.922;2022-08-19T05:47:47;5.38;;;1.75;;
60068;SDS011;45945;53.350;55.922;2022-08-19T05:48:51;6.32;;;2.10;;
60068;SDS011;45945;53.350;55.922;2022-08-19T05:49:51;5.70;;;2.00;;
60068;SDS011;45945;53.350;55.922;2022-08-19T05:50:53;4.55;;;1.48;;
60068;SDS011;45945;53.350;55.922;2022-08-19T05:51:54;6.43;;;1.90;;
60068;SDS011;45945;53.350;55.922;2022-08-19T05:52:56;6.43;;;1.80;;
60068;SDS011;45945;53.350;55.922;2022-08-19T05:53:57;5.50;;;1.70;;
60068;SDS011;45945;53.350;55.922;2022-08-19T05:54:58;6.80;;;2.17;;
60068;SDS011;45945;53.350;55.922;2022-08-19T05:56:05;5.25;;;1.85;;
60068;SDS011;45945;53.350;55.922;2022-08-19T05:57:11;5.90;;;1.70;;
60068;SDS011;45945;53.350;55.922;2022-08-19T05:58:12;4.63;;;1.60;;
60068;SDS011;45945;53.350;55.922;2022-08-19T05:59:14;4.25;;;1.55;;
60068;SDS011;45945;53.350;55.922;2022-08-19T06:00:17;5.97;;;1.98;;
60068;SDS011;45945;53.350;55.922;2022-08-19T06:01:18;5.63;;;1.90;;
60068;SDS011;45945;53.350;55.922;2022-08-19T06:02:19;4.10;;;1.50;;
60068;SDS011;45945;53.350;55.922;2022-08-19T06:03:20;6.35;;;1.85;;
60068;SDS011;45945;53.350;55.922;2022-08-19T06:04:21;4.93;;;1.52;;
60068;SDS011;45945;53.350;55.922;2022-08-19T06:05:23;4.00;;;1.42;;
60068;SDS011;45945;53.350;55.922;2022-08-19T06:06:24;5.15;;;1.60;;
60068;SDS011;45945;53.350;55.922;2022-08-19T06:07:25;5.72;;;1.58;;
60068;SDS011;45945;53.350;55.922;2022-08-19T06:08:26;4.95;;;1.80;;
60068;SDS011;45945;53.350;55.922;2022-08-19T06:09:27;6.07;;;1.95;;
60068;SDS011;45945;53.350;55.922;2022-08-19T06:10:29;4.60;;;1.83;;
60068;SDS011;45945;53.350;55.922;2022-08-19T06:12:38;4.05;;;1.63;;
60068;SDS011;45945;53.350;55.922;2022-08-19T06:13:39;5.88;;;1.90;;
60068;SDS011;45945;53.350;55.922;2022-08-19T06:14:40;4.18;;;1.63;;
60068;SDS011;45945;53.350;55.922;2022-08-19T06:15:41;5.05;;;1.80;;
60068;SDS011;45945;53.350;55.922;2022-08-19T06:16:44;3.38;;;1.50;;
60068;SDS011;45945;53.350;55.922;2022-08-19T06:17:48;4.72;;;1.70;;
60068;SDS011;45945;53.350;55.922;2022-08-19T06:18:50;6.35;;;1.52;;
60068;SDS011;45945;53.350;55.922;2022-08-19T06:19:54;6.07;;;1.63;;
60068;SDS011;45945;53.350;55.922;2022-08-19T06:20:55;4.63;;;1.80;;
60068;SDS011;45945;53.350;55.922;2022-08-19T06:21:57;5.18;;;1.80;;
60068;SDS011;45945;53.350;55.922;2022-08-19T06:22:59;4.47;;;1.70;;
60068;SDS011;45945;53.350;55.922;2022-08-19T06:24:00;5.53;;;2.13;;
60068;SDS011;45945;53.350;55.922;2022-08-19T06:25:03;5.20;;;1.90;;
60068;SDS011;45945;53.350;55.922;2022-08-19T06:26:04;4.65;;;1.77;;
60068;SDS011;45945;53.350;55.922;2022-08-19T06:27:05;4.80;;;1.70;;
60068;SDS011;45945;53.350;55.922;2022-08-19T06:28:06;4.55;;;1.60;;
60068;SDS011;45945;53.350;55.922;2022-08-19T06:29:08;5.40;;;1.70;;
60068;SDS011;45945;53.350;55.922;2022-08-19T06:30:10;3.92;;;1.77;;
60068;SDS011;45945;53.350;55.922;2022-08-19T06:31:21;5.68;;;2.40;;
60068;SDS011;45945;53.350;55.922;2022-08-19T06:32:25;4.72;;;1.77;;
60068;SDS011;45945;53.350;55.922;2022-08-19T06:33:26;4.65;;;1.90;;
60068;SDS011;45945;53.350;55.922;2022-08-19T06:34:27;5.82;;;1.92;;
60068;SDS011;45945;53.350;55.922;2022-08-19T06:35:29;4.65;;;1.83;;
60068;SDS011;45945;53.350;55.922;2022-08-19T06:36:34;4.25;;;1.75;;
60068;SDS011;45945;53.350;55.922;2022-08-19T06:37:38;5.82;;;1.80;;
60068;SDS011;45945;53.350;55.922;2022-08-19T06:38:38;4.43;;;1.73;;
60068;SDS011;45945;53.350;55.922;2022-08-19T06:39:40;4.88;;;1.50;;
60068;SDS011;45945;53.350;55.922;2022-08-19T06:40:43;5.65;;;1.92;;
60068;SDS011;45945;53.350;55.922;2022-08-19T06:41:45;4.93;;;1.75;;
60068;SDS011;45945;53.350;55.922;2022-08-19T06:42:51;4.50;;;1.70;;
60068;SDS011;45945;53.350;55.922;2022-08-19T06:43:53;5.75;;;1.70;;
60068;SDS011;45945;53.350;55.922;2022-08-19T06:44:55;5.13;;;1.92;;
60068;SDS011;45945;53.350;55.922;2022-08-19T06:45:56;6.20;;;2.00;;
60068;SDS011;45945;53.350;55.922;2022-08-19T06:46:57;5.05;;;2.03;;
60068;SDS011;45945;53.350;55.922;2022-08-19T06:47:58;5.40;;;1.90;;
60068;SDS011;45945;53.350;55.922;2022-08-19T06:48:59;6.28;;;2.10;;
60068;SDS011;45945;53.350;55.922;2022-08-19T06:50:00;6.70;;;2.00;;
60068;SDS011;45945;53.350;55.922;2022-08-19T06:51:05;5.75;;;1.90;;
60068;SDS011;45945;53.350;55.922;2022-08-19T06:52:06;4.80;;;1.80;;
60068;SDS011;45945;53.350;55.922;2022-08-19T06:53:08;5.78;;;2.10;;
60068;SDS011;45945;53.350;55.922;2022-08-19T06:54:09;7.82;;;1.98;;
60068;SDS011;45945;53.350;55.922;2022-08-19T06:55:11;5.90;;;2.05;;
60068;SDS011;45945;53.350;55.922;2022-08-19T06:56:15;5.55;;;2.20;;
60068;SDS011;45945;53.350;55.922;2022-08-19T06:57:18;4.55;;;1.95;;
60068;SDS011;45945;53.350;55.922;2022-08-19T06:58:19;5.55;;;1.85;;
60068;SDS011;45945;53.350;55.922;2022-08-19T06:59:21;5.53;;;1.80;;
60068;SDS011;45945;53.350;55.922;2022-08-19T07:00:27;5.38;;;1.70;;
60068;SDS011;45945;53.350;55.922;2022-08-19T07:01:28;4.43;;;1.70;;
60068;SDS011;45945;53.350;55.922;2022-08-19T07:02:29;4.10;;;1.75;;
60068;SDS011;45945;53.350;55.922;2022-08-19T07:03:31;6.50;;;1.90;;
60068;SDS011;45945;53.350;55.922;2022-08-19T07:04:35;3.83;;;1.58;;
60068;SDS011;45945;53.350;55.922;2022-08-19T07:05:41;5.53;;;1.80;;
60068;SDS011;45945;53.350;55.922;2022-08-19T07:06:43;7.00;;;1.85;;
60068;SDS011;45945;53.350;55.922;2022-08-19T07:07:44;6.47;;;1.90;;
60068;SDS011;45945;53.350;55.922;2022-08-19T07:08:45;4.60;;;1.58;;
60068;SDS011;45945;53.350;55.922;2022-08-19T07:09:48;8.93;;;2.20;;
60068;SDS011;45945;53.350;55.922;2022-08-19T07:10:50;7.45;;;2.40;;
60068;SDS011;45945;53.350;55.922;2022-08-19T07:11:52;6.18;;;2.20;;
60068;SDS011;45945;53.350;55.922;2022-08-19T07:12:54;7.43;;;2.67;;
60068;SDS011;45945;53.350;55.922;2022-08-19T07:13:55;5.88;;;2.15;;
60068;SDS011;45945;53.350;55.922;2022-08-19T07:14:56;8.88;;;2.22;;
60068;SDS011;45945;53.350;55.922;2022-08-19T07:15:58;6.13;;;2.00;;
60068;SDS011;45945;53.350;55.922;2022-08-19T07:16:59;4.18;;;1.75;;
60068;SDS011;45945;53.350;55.922;2022-08-19T07:18:00;6.88;;;2.10;;
60068;SDS011;45945;53.350;55.922;2022-08-19T07:19:00;5.10;;;2.00;;
60068;SDS011;45945;53.350;55.922;2022-08-19T07:20:02;5.22;;;1.88;;
60068;SDS011;45945;53.350;55.922;2022-08-19T07:21:11;4.18;;;1.80;;
60068;SDS011;45945;53.350;55.922;2022-08-19T07:22:17;4.85;;;1.70;;
60068;SDS011;45945;53.350;55.922;2022-08-19T07:23:20;5.05;;;1.98;;
60068;SDS011;45945;53.350;55.922;2022-08-19T07:24:23;5.28;;;2.00;;
60068;SDS011;45945;53.350;55.922;2022-08-19T07:25:25;5.45;;;1.83;;
60068;SDS011;45945;53.350;55.922;2022-08-19T07:26:28;5.10;;;1.80;;
60068;SDS011;45945;53.350;55.922;2022-08-19T07:27:30;5.68;;;2.15;;
60068;SDS011;45945;53.350;55.922;2022-08-19T07:28:31;5.78;;;2.30;;
60068;SDS011;45945;53.350;55.922;2022-08-19T07:29:33;4.50;;;1.80;;
60068;SDS011;45945;53.350;55.922;2022-08-19T07:30:38;5.50;;;1.95;;
60068;SDS011;45945;53.350;55.922;2022-08-19T07:31:41;4.80;;;2.17;;
60068;SDS011;45945;53.350;55.922;2022-08-19T07:32:42;6.35;;;2.33;;
60068;SDS011;45945;53.350;55.922;2022-08-19T07:33:43;5.22;;;2.05;;
60068;SDS011;45945;53.350;55.922;2022-08-19T07:34:46;5.90;;;2.03;;
60068;SDS011;45945;53.350;55.922;2022-08-19T07:35:47;6.78;;;2.33;;
60068;SDS011;45945;53.350;55.922;2022-08-19T07:36:49;5.30;;;2.20;;
60068;SDS011;45945;53.350;55.922;2022-08-19T07:37:50;7.10;;;2.70;;
60068;SDS011;45945;53.350;55.922;2022-08-19T07:38:53;6.70;;;2.22;;
60068;SDS011;45945;53.350;55.922;2022-08-19T07:39:54;6.72;;;2.42;;
60068;SDS011;45945;53.350;55.922;2022-08-19T07:40:55;5.32;;;2.25;;
60068;SDS011;45945;53.350;55.922;2022-08-19T07:41:57;6.80;;;2.83;;
60068;SDS011;45945;53.350;55.922;2022-08-19T07:43:00;6.15;;;2.30;;
60068;SDS011;45945;53.350;55.922;2022-08-19T07:44:01;7.20;;;2.20;;
60068;SDS011;45945;53.350;55.922;2022-08-19T07:45:05;5.47;;;2.30;;